createdAt,value
2016-11-29T00:00:03.409Z,24.26
2016-11-29T00:00:31.669Z,24.31
2016-11-29T00:00:59.863Z,24.23
2016-11-29T00:01:27.923Z,24.23
2016-11-29T00:01:56.202Z,24.26
2016-11-29T00:02:24.478Z,24.25
2016-11-29T00:02:52.661Z,24.26
2016-11-29T00:04:03.791Z,24.19
2016-11-29T00:04:31.891Z,24.28
2016-11-29T00:05:00.220Z,24.25
2016-11-29T00:05:28.416Z,24.26
2016-11-29T00:05:56.636Z,24.23
2016-11-29T00:06:24.901Z,24.25
2016-11-29T00:06:53.200Z,24.28
2016-11-29T00:07:21.288Z,24.25
2016-11-29T00:07:49.377Z,24.26
2016-11-29T00:08:17.560Z,24.29
2016-11-29T00:08:45.543Z,24.23
2016-11-29T00:09:56.766Z,24.26
2016-11-29T00:10:25.053Z,24.23
2016-11-29T00:10:53.323Z,24.25
2016-11-29T00:11:21.616Z,24.13
2016-11-29T00:11:49.922Z,24.21
2016-11-29T00:12:18.092Z,24.23
2016-11-29T00:12:46.049Z,24.15
2016-11-29T00:13:14.137Z,24.23
2016-11-29T00:13:42.230Z,24.26
2016-11-29T00:14:10.421Z,24.23
2016-11-29T00:14:38.683Z,24.23
2016-11-29T00:15:49.908Z,24.25
2016-11-29T00:16:17.916Z,24.22
2016-11-29T00:16:46.177Z,24.22
2016-11-29T00:17:14.282Z,24.22
2016-11-29T00:17:42.402Z,24.22
2016-11-29T00:18:10.487Z,24.21
2016-11-29T00:18:38.535Z,24.15
2016-11-29T00:19:06.597Z,24.18
2016-11-29T00:19:34.784Z,24.19
2016-11-29T00:20:02.787Z,24.21
2016-11-29T00:20:31.057Z,24.18
2016-11-29T00:21:42.373Z,24.13
2016-11-29T00:22:10.475Z,24.15
2016-11-29T00:22:38.515Z,24.15
2016-11-29T00:23:06.680Z,24.16
2016-11-29T00:23:34.791Z,24.04
2016-11-29T00:24:02.957Z,24.06
2016-11-29T00:24:31.248Z,24.03
2016-11-29T00:24:59.404Z,24.15
2016-11-29T00:25:27.679Z,24.07
2016-11-29T00:25:55.868Z,24.03
2016-11-29T00:26:24.136Z,24.06
2016-11-29T00:27:35.359Z,24.04
2016-11-29T00:28:03.367Z,24.1
2016-11-29T00:28:31.598Z,24.1
2016-11-29T00:28:59.677Z,24.01
2016-11-29T00:29:27.877Z,24
2016-11-29T00:29:56.142Z,24.04
2016-11-29T00:30:24.436Z,24.07
2016-11-29T00:30:52.598Z,24.01
2016-11-29T00:31:20.873Z,24.1
2016-11-29T00:31:48.965Z,24.08
2016-11-29T00:32:17.137Z,24.04
2016-11-29T00:33:28.261Z,24.06
2016-11-29T00:33:56.464Z,24.07
2016-11-29T00:34:24.690Z,24.1
2016-11-29T00:34:52.862Z,24.07
2016-11-29T00:35:21.066Z,24.04
2016-11-29T00:35:49.328Z,24.07
2016-11-29T00:36:17.524Z,24.1
2016-11-29T00:36:45.679Z,24.11
2016-11-29T00:37:13.864Z,24.01
2016-11-29T00:37:42.049Z,24.15
2016-11-29T00:38:10.314Z,24.03
2016-11-29T00:39:21.531Z,24.03
2016-11-29T00:39:49.728Z,24.07
2016-11-29T00:40:17.860Z,23.94
2016-11-29T00:40:46.120Z,24.01
2016-11-29T00:41:14.421Z,24
2016-11-29T00:41:42.586Z,24.03
2016-11-29T00:42:10.782Z,24.01
2016-11-29T00:42:38.845Z,23.98
2016-11-29T00:43:06.929Z,24
2016-11-29T00:43:35.117Z,23.96
2016-11-29T00:44:03.291Z,24.04
2016-11-29T00:45:14.415Z,24.01
2016-11-29T00:45:42.428Z,24.01
2016-11-29T00:46:10.659Z,24.06
2016-11-29T00:46:38.830Z,24.01
2016-11-29T00:47:07.041Z,24.01
2016-11-29T00:47:35.119Z,24.03
2016-11-29T00:48:03.316Z,24.03
2016-11-29T00:48:31.381Z,24.07
2016-11-29T00:48:59.463Z,24.06
2016-11-29T00:49:27.460Z,24.07
2016-11-29T00:49:55.540Z,24.07
2016-11-29T00:51:06.852Z,24.06
2016-11-29T00:51:35.140Z,24.04
2016-11-29T00:52:03.370Z,24.07
2016-11-29T00:52:31.632Z,24.1
2016-11-29T00:52:59.838Z,24.11
2016-11-29T00:53:28.011Z,24.06
2016-11-29T00:53:56.205Z,24.07
2016-11-29T00:54:24.277Z,24.08
2016-11-29T00:54:52.459Z,24.08
2016-11-29T00:55:20.552Z,24.1
2016-11-29T00:55:48.634Z,23.98
2016-11-29T00:56:59.858Z,24.13
2016-11-29T00:57:28.050Z,24.15
2016-11-29T00:57:56.184Z,24.08
2016-11-29T00:58:24.354Z,24.11
2016-11-29T00:58:52.561Z,24.15
2016-11-29T00:59:20.731Z,24.08
2016-11-29T00:59:49.014Z,24.07
2016-11-29T01:00:16.987Z,24.08
2016-11-29T01:00:45.258Z,24.13
2016-11-29T01:01:13.538Z,24.15
2016-11-29T01:01:41.621Z,24.15
2016-11-29T01:02:52.652Z,24.1
2016-11-29T01:03:20.749Z,24.11
2016-11-29T01:03:48.973Z,24.08
2016-11-29T01:04:17.051Z,24.11
2016-11-29T01:04:45.170Z,24.11
2016-11-29T01:05:13.341Z,24.07
2016-11-29T01:05:41.623Z,24.11
2016-11-29T01:06:09.690Z,24.11
2016-11-29T01:06:37.870Z,24.11
2016-11-29T01:07:05.871Z,24.11
2016-11-29T01:07:34.143Z,24.1
2016-11-29T01:08:45.461Z,24.08
2016-11-29T01:09:13.745Z,24.11
2016-11-29T01:09:42.065Z,24.13
2016-11-29T01:10:10.142Z,24.07
2016-11-29T01:10:38.254Z,24.18
2016-11-29T01:11:06.336Z,24.13
2016-11-29T01:11:34.623Z,24.18
2016-11-29T01:12:02.685Z,24.11
2016-11-29T01:12:30.775Z,24.11
2016-11-29T01:12:59.052Z,24.16
2016-11-29T01:13:27.232Z,24.15
2016-11-29T01:14:38.358Z,24.13
2016-11-29T01:15:06.555Z,24.19
2016-11-29T01:15:34.819Z,24.16
2016-11-29T01:16:02.924Z,24.13
2016-11-29T01:16:31.138Z,24.08
2016-11-29T01:16:59.313Z,24.15
2016-11-29T01:17:27.519Z,24.08
2016-11-29T01:17:55.801Z,24.04
2016-11-29T01:18:23.883Z,24.1
2016-11-29T01:18:52.073Z,24.06
2016-11-29T01:19:20.343Z,24.06
2016-11-29T01:20:31.650Z,24.04
2016-11-29T01:20:59.749Z,24.01
2016-11-29T01:21:27.919Z,24.13
2016-11-29T01:21:56.206Z,24.08
2016-11-29T01:22:24.423Z,24.08
2016-11-29T01:22:52.680Z,24.07
2016-11-29T01:23:20.789Z,24.08
2016-11-29T01:23:48.875Z,24.06
2016-11-29T01:24:16.962Z,24.03
2016-11-29T01:24:45.058Z,24.1
2016-11-29T01:25:13.230Z,24.07
2016-11-29T01:26:24.444Z,24.1
2016-11-29T01:26:52.641Z,24.1
2016-11-29T01:27:20.716Z,24.15
2016-11-29T01:27:48.818Z,24.13
2016-11-29T01:28:16.938Z,24.11
2016-11-29T01:28:45.198Z,24.15
2016-11-29T01:29:13.395Z,24.15
2016-11-29T01:29:41.579Z,24.13
2016-11-29T01:30:09.761Z,24.08
2016-11-29T01:30:37.849Z,24.11
2016-11-29T01:31:06.040Z,24.13
2016-11-29T01:32:17.073Z,24.15
2016-11-29T01:32:45.268Z,24.13
2016-11-29T01:33:13.494Z,24.11
2016-11-29T01:33:41.567Z,24.18
2016-11-29T01:34:09.581Z,24.15
2016-11-29T01:34:37.650Z,24.18
2016-11-29T01:35:05.848Z,24.22
2016-11-29T01:35:33.905Z,24.19
2016-11-29T01:36:02.081Z,24.23
2016-11-29T01:36:30.182Z,24.21
2016-11-29T01:36:58.352Z,24.15
2016-11-29T01:38:09.573Z,24.25
2016-11-29T01:38:37.765Z,24.25
2016-11-29T01:39:06.002Z,24.22
2016-11-29T01:39:34.077Z,24.26
2016-11-29T01:40:02.188Z,24.23
2016-11-29T01:40:30.259Z,24.25
2016-11-29T01:40:58.545Z,24.31
2016-11-29T01:41:26.791Z,24.22
2016-11-29T01:41:54.778Z,24.25
2016-11-29T01:42:22.812Z,24.22
2016-11-29T01:42:50.890Z,24.26
2016-11-29T01:44:02.016Z,24.26
2016-11-29T01:44:30.213Z,24.25
2016-11-29T01:44:58.436Z,24.25
2016-11-29T01:45:26.449Z,24.28
2016-11-29T01:45:54.740Z,24.29
2016-11-29T01:46:22.908Z,24.23
2016-11-29T01:46:51.101Z,24.28
2016-11-29T01:47:19.161Z,24.25
2016-11-29T01:47:47.245Z,24.25
2016-11-29T01:48:15.525Z,24.28
2016-11-29T01:48:43.698Z,24.31
2016-11-29T01:49:54.820Z,24.25
2016-11-29T01:50:22.919Z,24.33
2016-11-29T01:50:51.050Z,24.25
2016-11-29T01:51:19.220Z,24.28
2016-11-29T01:51:47.421Z,24.31
2016-11-29T01:52:15.681Z,24.26
2016-11-29T01:52:43.877Z,24.23
2016-11-29T01:53:11.848Z,24.29
2016-11-29T01:53:40.033Z,24.34
2016-11-29T01:54:08.122Z,24.23
2016-11-29T01:54:36.210Z,24.26
2016-11-29T01:55:47.339Z,24.38
2016-11-29T01:56:15.534Z,24.31
2016-11-29T01:56:43.581Z,24.34
2016-11-29T01:57:11.846Z,24.36
2016-11-29T01:57:40.047Z,24.33
2016-11-29T01:58:08.220Z,24.31
2016-11-29T01:58:36.415Z,24.45
2016-11-29T01:59:04.581Z,24.4
2016-11-29T01:59:32.768Z,24.38
2016-11-29T02:00:00.869Z,24.43
2016-11-29T02:00:28.941Z,24.37
2016-11-29T02:01:40.262Z,24.37
2016-11-29T02:02:08.548Z,24.37
2016-11-29T02:02:36.774Z,24.38
2016-11-29T02:03:04.853Z,24.4
2016-11-29T02:03:33.146Z,24.37
2016-11-29T02:04:01.318Z,24.38
2016-11-29T02:04:29.514Z,24.45
2016-11-29T02:04:57.672Z,24.43
2016-11-29T02:05:25.763Z,24.36
2016-11-29T02:05:53.767Z,24.43
2016-11-29T02:06:21.940Z,24.41
2016-11-29T02:07:33.073Z,24.36
2016-11-29T02:08:01.360Z,24.34
2016-11-29T02:08:29.594Z,24.31
2016-11-29T02:08:57.767Z,24.41
2016-11-29T02:09:25.969Z,24.34
2016-11-29T02:09:54.039Z,24.38
2016-11-29T02:10:22.233Z,24.41
2016-11-29T02:10:50.202Z,24.45
2016-11-29T02:11:18.382Z,24.4
2016-11-29T02:11:46.474Z,24.38
2016-11-29T02:12:14.649Z,24.34
2016-11-29T02:13:25.870Z,24.41
2016-11-29T02:13:54.067Z,24.36
2016-11-29T02:14:22.204Z,24.41
2016-11-29T02:14:50.374Z,24.41
2016-11-29T02:15:18.491Z,24.33
2016-11-29T02:15:46.656Z,24.37
2016-11-29T02:16:14.852Z,24.47
2016-11-29T02:16:43.009Z,24.41
2016-11-29T02:17:11.281Z,24.36
2016-11-29T02:17:39.558Z,24.37
2016-11-29T02:18:07.733Z,24.36
2016-11-29T02:19:18.956Z,24.41
2016-11-29T02:19:47.151Z,24.38
2016-11-29T02:20:15.383Z,24.45
2016-11-29T02:20:43.553Z,24.33
2016-11-29T02:21:11.669Z,24.4
2016-11-29T02:21:39.836Z,24.37
2016-11-29T02:22:08.032Z,24.37
2016-11-29T02:22:36.018Z,24.36
2016-11-29T02:23:04.290Z,24.4
2016-11-29T02:23:32.290Z,24.33
2016-11-29T02:24:00.566Z,24.34
2016-11-29T02:25:11.878Z,24.43
2016-11-29T02:25:39.973Z,24.29
2016-11-29T02:26:08.115Z,24.19
2016-11-29T02:26:36.285Z,24.29
2016-11-29T02:27:04.396Z,24.33
2016-11-29T02:27:32.569Z,24.23
2016-11-29T02:28:00.578Z,24.29
2016-11-29T02:28:28.730Z,24.25
2016-11-29T02:28:56.815Z,24.22
2016-11-29T02:29:24.905Z,24.33
2016-11-29T02:29:53.077Z,24.33
2016-11-29T02:31:04.204Z,24.29
2016-11-29T02:31:32.203Z,24.34
2016-11-29T02:32:00.247Z,24.34
2016-11-29T02:32:28.505Z,24.21
2016-11-29T02:32:56.716Z,24.25
2016-11-29T02:33:24.694Z,24.33
2016-11-29T02:33:52.883Z,24.25
2016-11-29T02:34:20.943Z,24.29
2016-11-29T02:34:49.219Z,24.26
2016-11-29T02:35:17.220Z,24.26
2016-11-29T02:35:45.395Z,24.29
2016-11-29T02:36:56.343Z,24.28
2016-11-29T02:37:24.254Z,24.25
2016-11-29T02:37:52.578Z,24.33
2016-11-29T02:38:20.748Z,24.33
2016-11-29T02:38:49.046Z,24.25
2016-11-29T02:39:17.306Z,24.28
2016-11-29T02:39:45.595Z,24.25
2016-11-29T02:40:13.754Z,24.28
2016-11-29T02:40:42.034Z,24.23
2016-11-29T02:41:10.121Z,24.33
2016-11-29T02:41:38.298Z,24.29
2016-11-29T02:42:49.332Z,24.29
2016-11-29T02:43:17.616Z,24.29
2016-11-29T02:43:45.753Z,24.28
2016-11-29T02:44:13.828Z,24.33
2016-11-29T02:44:42.035Z,24.28
2016-11-29T02:45:10.294Z,24.26
2016-11-29T02:45:38.493Z,24.29
2016-11-29T02:46:06.558Z,24.33
2016-11-29T02:46:34.740Z,24.28
2016-11-29T02:47:02.843Z,24.26
2016-11-29T02:47:30.923Z,24.31
2016-11-29T02:48:42.146Z,24.29
2016-11-29T02:49:10.339Z,24.34
2016-11-29T02:49:38.565Z,24.34
2016-11-29T02:50:06.735Z,24.33
2016-11-29T02:50:34.749Z,24.33
2016-11-29T02:51:02.919Z,24.34
2016-11-29T02:51:31.205Z,24.34
2016-11-29T02:51:59.362Z,24.38
2016-11-29T02:52:27.544Z,24.29
2016-11-29T02:52:55.452Z,24.34
2016-11-29T02:53:23.624Z,24.29
2016-11-29T02:54:34.750Z,24.36
2016-11-29T02:55:02.845Z,24.28
2016-11-29T02:55:30.885Z,24.33
2016-11-29T02:55:59.150Z,24.36
2016-11-29T02:56:27.453Z,24.34
2016-11-29T02:56:55.715Z,24.29
2016-11-29T02:57:24.001Z,24.38
2016-11-29T02:57:52.248Z,24.34
2016-11-29T02:58:20.429Z,24.36
2016-11-29T02:58:48.522Z,24.41
2016-11-29T02:59:16.789Z,24.4
2016-11-29T03:00:27.930Z,24.41
2016-11-29T03:00:56.025Z,24.38
2016-11-29T03:01:24.065Z,24.41
2016-11-29T03:01:52.238Z,24.43
2016-11-29T03:02:20.536Z,24.43
2016-11-29T03:02:48.801Z,24.38
2016-11-29T03:03:16.805Z,24.38
2016-11-29T03:03:44.962Z,24.4
2016-11-29T03:04:13.236Z,24.38
2016-11-29T03:04:41.518Z,24.4
2016-11-29T03:05:09.693Z,24.43
2016-11-29T03:06:20.921Z,24.4
2016-11-29T03:06:49.032Z,24.36
2016-11-29T03:07:17.271Z,24.38
2016-11-29T03:07:45.439Z,24.38
2016-11-29T03:08:13.458Z,24.28
2016-11-29T03:08:41.661Z,24.26
2016-11-29T03:09:09.952Z,24.37
2016-11-29T03:09:38.112Z,24.28
2016-11-29T03:10:06.296Z,24.23
2016-11-29T03:10:34.484Z,24.25
2016-11-29T03:11:02.755Z,24.31
2016-11-29T03:12:14.066Z,24.31
2016-11-29T03:12:42.258Z,24.23
2016-11-29T03:13:10.389Z,24.26
2016-11-29T03:13:38.565Z,24.29
2016-11-29T03:14:06.861Z,24.25
2016-11-29T03:14:34.944Z,24.29
2016-11-29T03:15:03.230Z,24.31
2016-11-29T03:15:31.480Z,24.29
2016-11-29T03:15:59.666Z,24.29
2016-11-29T03:16:27.853Z,24.28
2016-11-29T03:16:56.026Z,24.23
2016-11-29T03:18:07.151Z,24.28
2016-11-29T03:18:35.257Z,24.23
2016-11-29T03:19:03.483Z,24.33
2016-11-29T03:19:31.559Z,24.28
2016-11-29T03:19:59.693Z,24.25
2016-11-29T03:20:27.864Z,24.28
2016-11-29T03:20:56.152Z,24.23
2016-11-29T03:21:24.401Z,24.28
2016-11-29T03:21:52.675Z,24.29
2016-11-29T03:22:20.862Z,24.19
2016-11-29T03:22:49.132Z,24.28
2016-11-29T03:24:00.260Z,24.25
2016-11-29T03:24:28.455Z,24.23
2016-11-29T03:24:56.681Z,24.22
2016-11-29T03:25:24.757Z,24.16
2016-11-29T03:25:52.966Z,24.16
2016-11-29T03:26:21.134Z,24.13
2016-11-29T03:26:49.419Z,24.04
2016-11-29T03:27:17.671Z,24.06
2016-11-29T03:27:45.947Z,24.07
2016-11-29T03:28:14.135Z,24.1
2016-11-29T03:28:42.400Z,24.15
2016-11-29T03:29:53.617Z,24.1
2016-11-29T03:30:21.815Z,24.01
2016-11-29T03:30:50.041Z,24.07
2016-11-29T03:31:18.125Z,24.03
2016-11-29T03:31:46.327Z,24.04
2016-11-29T03:32:14.501Z,24.06
2016-11-29T03:32:42.695Z,24.07
2016-11-29T03:33:10.849Z,23.96
2016-11-29T03:33:39.026Z,24.1
2016-11-29T03:34:07.213Z,24.01
2016-11-29T03:34:35.396Z,23.86
2016-11-29T03:35:46.702Z,23.89
2016-11-29T03:36:14.712Z,23.94
2016-11-29T03:36:42.948Z,23.82
2016-11-29T03:37:11.023Z,23.79
2016-11-29T03:37:39.132Z,23.7
2016-11-29T03:38:07.302Z,23.69
2016-11-29T03:38:35.504Z,23.48
2016-11-29T03:39:03.561Z,23.59
2016-11-29T03:39:31.738Z,23.52
2016-11-29T03:39:59.927Z,23.48
2016-11-29T03:40:27.911Z,23.36
2016-11-29T03:41:39.042Z,23.33
2016-11-29T03:42:07.326Z,23.31
2016-11-29T03:42:35.458Z,23.37
2016-11-29T03:43:03.718Z,23.34
2016-11-29T03:43:32.010Z,23.29
2016-11-29T03:44:00.183Z,23.26
2016-11-29T03:44:28.280Z,23.18
2016-11-29T03:44:56.172Z,23.17
2016-11-29T03:45:24.265Z,23.21
2016-11-29T03:45:52.357Z,23.1
2016-11-29T03:46:20.347Z,23.04
2016-11-29T03:47:31.469Z,23.11
2016-11-29T03:47:59.658Z,23.1
2016-11-29T03:48:27.695Z,23.11
2016-11-29T03:48:55.962Z,23.03
2016-11-29T03:49:24.162Z,23.1
2016-11-29T03:49:52.235Z,23.04
2016-11-29T03:50:20.242Z,22.95
2016-11-29T03:50:48.303Z,23.01
2016-11-29T03:51:16.481Z,22.89
2016-11-29T03:51:44.755Z,22.89
2016-11-29T03:52:13.024Z,22.85
2016-11-29T03:53:24.240Z,22.76
2016-11-29T03:53:52.430Z,22.81
2016-11-29T03:54:20.659Z,22.71
2016-11-29T03:54:48.825Z,22.68
2016-11-29T03:55:16.747Z,22.8
2016-11-29T03:55:44.915Z,22.73
2016-11-29T03:56:13.103Z,22.64
2016-11-29T03:56:41.076Z,22.67
2016-11-29T03:57:09.253Z,22.7
2016-11-29T03:57:37.245Z,22.7
2016-11-29T03:58:05.512Z,22.73
2016-11-29T03:59:16.723Z,22.68
2016-11-29T03:59:44.814Z,22.67
2016-11-29T04:00:13.039Z,22.7
2016-11-29T04:00:41.205Z,22.73
2016-11-29T04:01:09.405Z,22.67
2016-11-29T04:01:37.476Z,22.64
2016-11-29T04:02:05.575Z,22.71
2016-11-29T04:02:33.542Z,22.73
2016-11-29T04:03:01.624Z,22.81
2016-11-29T04:03:49.026Z,22.8
2016-11-29T04:04:17.132Z,22.78
2016-11-29T04:05:28.284Z,22.89
2016-11-29T04:05:56.456Z,22.8
2016-11-29T04:06:24.618Z,22.8
2016-11-29T04:06:52.913Z,22.68
2016-11-29T04:07:21.114Z,22.74
2016-11-29T04:07:49.310Z,22.66
2016-11-29T04:08:17.263Z,22.67
2016-11-29T04:08:45.354Z,22.58
2016-11-29T04:09:13.661Z,22.53
2016-11-29T04:09:41.897Z,22.49
2016-11-29T04:10:10.024Z,22.49
2016-11-29T04:11:21.286Z,22.48
2016-11-29T04:11:49.519Z,22.31
2016-11-29T04:12:17.881Z,22.23
2016-11-29T04:12:45.995Z,22.22
2016-11-29T04:13:14.248Z,22.27
2016-11-29T04:13:42.367Z,22.16
2016-11-29T04:14:10.506Z,22.12
2016-11-29T04:14:38.610Z,22.21
2016-11-29T04:15:06.739Z,22.18
2016-11-29T04:15:34.876Z,22.07
2016-11-29T04:16:03.184Z,22.07
2016-11-29T04:17:14.541Z,21.98
2016-11-29T04:17:42.592Z,21.88
2016-11-29T04:18:10.772Z,21.8
2016-11-29T04:18:38.894Z,21.78
2016-11-29T04:19:07.234Z,21.8
2016-11-29T04:19:35.540Z,21.78
2016-11-29T04:20:03.588Z,21.8
2016-11-29T04:20:31.693Z,21.82
2016-11-29T04:20:59.911Z,21.8
2016-11-29T04:21:28.142Z,21.77
2016-11-29T04:21:56.452Z,21.74
2016-11-29T04:23:07.811Z,21.71
2016-11-29T04:23:35.955Z,21.67
2016-11-29T04:24:04.230Z,21.63
2016-11-29T04:24:32.439Z,21.6
2016-11-29T04:25:00.500Z,21.66
2016-11-29T04:25:28.615Z,21.6
2016-11-29T04:25:56.939Z,21.67
2016-11-29T04:26:25.136Z,21.69
2016-11-29T04:26:53.356Z,21.65
2016-11-29T04:27:21.584Z,21.62
2016-11-29T04:27:49.894Z,21.63
2016-11-29T04:29:01.161Z,21.58
2016-11-29T04:29:29.305Z,21.63
2016-11-29T04:29:57.575Z,21.62
2016-11-29T04:30:25.694Z,21.59
2016-11-29T04:30:54.033Z,21.53
2016-11-29T04:31:22.242Z,21.58
2016-11-29T04:31:50.568Z,21.62
2016-11-29T04:32:18.775Z,21.62
2016-11-29T04:32:46.908Z,21.65
2016-11-29T04:33:15.231Z,21.63
2016-11-29T04:33:43.444Z,21.6
2016-11-29T04:34:54.801Z,21.56
2016-11-29T04:35:23.134Z,21.55
2016-11-29T04:35:51.496Z,21.56
2016-11-29T04:36:19.805Z,21.48
2016-11-29T04:36:48.049Z,21.59
2016-11-29T04:37:16.168Z,21.59
2016-11-29T04:37:44.405Z,21.55
2016-11-29T04:38:12.693Z,21.63
2016-11-29T04:38:40.931Z,21.48
2016-11-29T04:39:09.160Z,21.41
2016-11-29T04:39:37.381Z,21.29
2016-11-29T04:40:48.642Z,21.29
2016-11-29T04:41:16.786Z,21.34
2016-11-29T04:41:45.056Z,21.32
2016-11-29T04:42:13.180Z,21.32
2016-11-29T04:42:41.522Z,21.26
2016-11-29T04:43:09.735Z,21.29
2016-11-29T04:43:37.880Z,21.32
2016-11-29T04:44:06.082Z,21.35
2016-11-29T04:44:34.212Z,21.3
2016-11-29T04:45:02.530Z,21.3
2016-11-29T04:45:30.561Z,21.29
2016-11-29T04:46:41.915Z,21.43
2016-11-29T04:47:09.993Z,21.37
2016-11-29T04:47:38.263Z,21.47
2016-11-29T04:48:06.286Z,21.47
2016-11-29T04:48:34.437Z,21.48
2016-11-29T04:49:02.650Z,21.38
2016-11-29T04:49:30.793Z,21.34
2016-11-29T04:49:59.083Z,21.4
2016-11-29T04:50:27.306Z,21.32
2016-11-29T04:50:55.347Z,21.34
2016-11-29T04:51:23.653Z,21.32
2016-11-29T04:52:34.917Z,21.29
2016-11-29T04:53:03.152Z,21.25
2016-11-29T04:53:31.324Z,21.14
2016-11-29T04:53:59.350Z,21.25
2016-11-29T04:54:27.500Z,21.26
2016-11-29T04:54:55.527Z,21.14
2016-11-29T04:55:23.672Z,21.18
2016-11-29T04:55:51.867Z,21.2
2016-11-29T04:56:20.100Z,21.16
2016-11-29T04:56:48.235Z,21.19
2016-11-29T04:57:16.547Z,21.19
2016-11-29T04:58:27.811Z,21.19
2016-11-29T04:58:56.140Z,21.2
2016-11-29T04:59:24.218Z,21.13
2016-11-29T04:59:52.429Z,21.01
2016-11-29T05:00:20.581Z,21.1
2016-11-29T05:00:48.704Z,21.16
2016-11-29T05:01:17.034Z,21.13
2016-11-29T05:01:45.229Z,21.14
2016-11-29T05:02:13.358Z,21.1
2016-11-29T05:02:41.494Z,21.16
2016-11-29T05:03:09.614Z,21.1
2016-11-29T05:04:20.785Z,21.13
2016-11-29T05:04:49.118Z,21.14
2016-11-29T05:05:17.201Z,21.14
2016-11-29T05:05:45.508Z,21.16
2016-11-29T05:06:13.752Z,21.2
2016-11-29T05:06:41.779Z,21.18
2016-11-29T05:07:10.113Z,21.18
2016-11-29T05:07:38.125Z,21.14
2016-11-29T05:08:06.440Z,21.11
2016-11-29T05:08:34.664Z,21.19
2016-11-29T05:09:02.879Z,21.2
2016-11-29T05:10:14.143Z,21.14
2016-11-29T05:10:42.382Z,21.16
2016-11-29T05:11:10.557Z,21.14
2016-11-29T05:11:38.860Z,21.08
2016-11-29T05:12:07.107Z,21.13
2016-11-29T05:12:35.316Z,21.13
2016-11-29T05:13:03.650Z,21.01
2016-11-29T05:13:31.849Z,21.13
2016-11-29T05:14:00.066Z,21.14
2016-11-29T05:14:28.392Z,21.16
2016-11-29T05:14:56.705Z,21.19
2016-11-29T05:16:07.871Z,21.2
2016-11-29T05:16:36.203Z,21.11
2016-11-29T05:17:04.560Z,21.08
2016-11-29T05:17:32.781Z,21.14
2016-11-29T05:18:01.120Z,21.13
2016-11-29T05:18:29.332Z,21.03
2016-11-29T05:18:57.379Z,21.05
2016-11-29T05:19:25.480Z,21.05
2016-11-29T05:19:53.698Z,21.01
2016-11-29T05:20:21.830Z,21.01
2016-11-29T05:20:50.142Z,21.07
2016-11-29T05:22:01.404Z,20.98
2016-11-29T05:22:29.458Z,21.07
2016-11-29T05:22:57.823Z,21
2016-11-29T05:23:26.129Z,20.97
2016-11-29T05:23:54.281Z,20.86
2016-11-29T05:24:22.494Z,20.98
2016-11-29T05:24:50.827Z,21
2016-11-29T05:25:19.045Z,20.9
2016-11-29T05:25:47.176Z,21.04
2016-11-29T05:26:15.148Z,21.03
2016-11-29T05:26:43.366Z,20.98
2016-11-29T05:27:54.720Z,20.97
2016-11-29T05:28:22.962Z,21.05
2016-11-29T05:28:51.140Z,21.04
2016-11-29T05:29:19.443Z,20.93
2016-11-29T05:29:47.508Z,21.01
2016-11-29T05:30:15.722Z,20.97
2016-11-29T05:30:43.772Z,20.93
2016-11-29T05:31:11.878Z,21.04
2016-11-29T05:31:40.104Z,20.92
2016-11-29T05:32:08.426Z,21.05
2016-11-29T05:32:36.547Z,21
2016-11-29T05:33:47.809Z,21.01
2016-11-29T05:34:16.141Z,21.01
2016-11-29T05:34:44.498Z,21.18
2016-11-29T05:35:12.624Z,21.03
2016-11-29T05:35:40.776Z,21.05
2016-11-29T05:36:08.895Z,21.11
2016-11-29T05:36:37.130Z,21.08
2016-11-29T05:37:05.422Z,21.19
2016-11-29T05:37:33.548Z,21.13
2016-11-29T05:38:01.680Z,21.11
2016-11-29T05:38:29.800Z,21.05
2016-11-29T05:39:41.062Z,20.98
2016-11-29T05:40:09.393Z,21.07
2016-11-29T05:40:37.748Z,21.07
2016-11-29T05:41:05.789Z,21.05
2016-11-29T05:41:33.852Z,21.03
2016-11-29T05:42:02.064Z,21.04
2016-11-29T05:42:30.299Z,21.03
2016-11-29T05:42:58.588Z,21.05
2016-11-29T05:43:26.804Z,21.05
2016-11-29T05:43:55.032Z,21.07
2016-11-29T05:44:23.245Z,21.04
2016-11-29T05:45:34.500Z,21.04
2016-11-29T05:46:02.643Z,21.11
2016-11-29T05:46:30.662Z,21.13
2016-11-29T05:46:58.965Z,21.13
2016-11-29T05:47:27.212Z,21.13
2016-11-29T05:47:55.516Z,21.13
2016-11-29T05:48:23.842Z,21.11
2016-11-29T05:48:51.949Z,21.01
2016-11-29T05:49:19.888Z,21.16
2016-11-29T05:49:48.021Z,21.1
2016-11-29T05:50:16.143Z,21.2
2016-11-29T05:51:27.306Z,21.13
2016-11-29T05:51:55.545Z,21.14
2016-11-29T05:52:23.721Z,21.14
2016-11-29T05:52:51.838Z,21.18
2016-11-29T05:53:19.994Z,21.14
2016-11-29T05:53:48.302Z,21.2
2016-11-29T05:54:16.537Z,21.16
2016-11-29T05:54:44.548Z,21.1
2016-11-29T05:55:12.676Z,21.13
2016-11-29T05:55:40.897Z,21.14
2016-11-29T05:56:09.019Z,21.1
2016-11-29T05:57:20.372Z,21.14
2016-11-29T05:57:48.631Z,20.98
2016-11-29T05:58:16.811Z,21.08
2016-11-29T05:58:44.930Z,21.04
2016-11-29T05:59:12.993Z,21.05
2016-11-29T05:59:41.020Z,21
2016-11-29T06:00:09.157Z,20.95
2016-11-29T06:00:37.445Z,21.05
2016-11-29T06:01:05.667Z,21.05
2016-11-29T06:01:33.617Z,21.01
2016-11-29T06:02:01.643Z,21.04
2016-11-29T06:03:13.000Z,21.03
2016-11-29T06:03:41.342Z,21.04
2016-11-29T06:04:09.521Z,21.05
2016-11-29T06:04:37.732Z,20.98
2016-11-29T06:05:05.980Z,20.98
2016-11-29T06:05:34.007Z,20.92
2016-11-29T06:06:02.246Z,21.03
2016-11-29T06:06:30.449Z,21.04
2016-11-29T06:06:58.767Z,21.03
2016-11-29T06:07:26.908Z,21.05
2016-11-29T06:07:55.218Z,21.05
2016-11-29T06:09:06.480Z,21
2016-11-29T06:09:34.813Z,21.04
2016-11-29T06:10:02.987Z,21.05
2016-11-29T06:10:31.289Z,21.03
2016-11-29T06:10:59.534Z,21.05
2016-11-29T06:11:27.563Z,20.97
2016-11-29T06:11:55.800Z,20.95
2016-11-29T06:12:24.094Z,21.01
2016-11-29T06:12:52.314Z,21.07
2016-11-29T06:13:20.448Z,21.04
2016-11-29T06:13:48.571Z,21
2016-11-29T06:14:59.922Z,21.04
2016-11-29T06:15:28.066Z,21.01
2016-11-29T06:15:56.146Z,20.97
2016-11-29T06:16:24.261Z,21
2016-11-29T06:16:52.422Z,21
2016-11-29T06:17:20.632Z,20.97
2016-11-29T06:17:48.774Z,21.03
2016-11-29T06:18:16.972Z,20.97
2016-11-29T06:18:45.095Z,20.98
2016-11-29T06:19:13.411Z,21.01
2016-11-29T06:19:41.254Z,21.01
2016-11-29T06:20:52.432Z,20.97
2016-11-29T06:21:20.574Z,21.03
2016-11-29T06:21:48.939Z,21.04
2016-11-29T06:22:17.057Z,21
2016-11-29T06:22:45.116Z,21.05
2016-11-29T06:23:13.354Z,21
2016-11-29T06:23:41.592Z,20.98
2016-11-29T06:24:09.698Z,21.01
2016-11-29T06:24:37.826Z,21.04
2016-11-29T06:25:06.052Z,21.01
2016-11-29T06:25:34.265Z,20.95
2016-11-29T06:26:45.532Z,20.85
2016-11-29T06:27:13.770Z,20.85
2016-11-29T06:27:41.852Z,20.92
2016-11-29T06:28:10.066Z,20.97
2016-11-29T06:28:38.222Z,20.93
2016-11-29T06:29:06.435Z,20.95
2016-11-29T06:29:34.673Z,20.88
2016-11-29T06:30:03.408Z,20.92
2016-11-29T06:30:31.631Z,20.85
2016-11-29T06:30:59.954Z,20.86
2016-11-29T06:31:28.267Z,20.85
2016-11-29T06:32:39.340Z,20.83
2016-11-29T06:33:07.388Z,20.83
2016-11-29T06:33:35.661Z,20.8
2016-11-29T06:34:03.964Z,20.83
2016-11-29T06:34:32.299Z,20.75
2016-11-29T06:35:00.418Z,20.75
2016-11-29T06:35:28.657Z,20.77
2016-11-29T06:35:56.947Z,20.75
2016-11-29T06:36:25.073Z,20.73
2016-11-29T06:36:53.117Z,20.79
2016-11-29T06:37:21.333Z,20.65
2016-11-29T06:38:32.500Z,20.68
2016-11-29T06:39:00.827Z,20.64
2016-11-29T06:39:29.092Z,20.63
2016-11-29T06:39:57.296Z,20.6
2016-11-29T06:40:25.545Z,20.64
2016-11-29T06:40:53.670Z,20.55
2016-11-29T06:41:21.904Z,20.52
2016-11-29T06:41:50.100Z,20.58
2016-11-29T06:42:18.317Z,20.61
2016-11-29T06:42:46.541Z,20.64
2016-11-29T06:43:14.667Z,20.53
2016-11-29T06:44:25.833Z,20.49
2016-11-29T06:44:54.072Z,20.53
2016-11-29T06:45:22.153Z,20.49
2016-11-29T06:45:50.182Z,20.49
2016-11-29T06:46:18.524Z,20.5
2016-11-29T06:46:46.831Z,20.5
2016-11-29T06:47:15.062Z,20.52
2016-11-29T06:47:43.257Z,20.52
2016-11-29T06:48:11.291Z,20.5
2016-11-29T06:48:39.424Z,20.5
2016-11-29T06:49:07.551Z,20.49
2016-11-29T06:50:18.536Z,20.52
2016-11-29T06:50:46.772Z,20.55
2016-11-29T06:51:14.865Z,20.55
2016-11-29T06:51:43.171Z,20.48
2016-11-29T06:52:11.415Z,20.48
2016-11-29T06:52:39.539Z,20.49
2016-11-29T06:53:07.870Z,20.52
2016-11-29T06:53:36.072Z,20.5
2016-11-29T06:54:04.287Z,20.5
2016-11-29T06:54:32.421Z,20.49
2016-11-29T06:55:00.636Z,20.52